• Join FlightAware (Why Join?)
  • Login
  • US Flag 
01:51PM EDT


 

Airport Tracker/Info


-or-


 

Live Flight TrackerFlight Track Log ✈ SWA1969 ✈ 30-Apr-2013 ✈ KDAL - KMCI

Flight Track Log - Related Links

Times and Time Zones

All times are in EDT time to prevent confusion due to time zone crossing. See the SWA1969 flight status page for this flight to view local times or setup timezone preferences in your user account.

Time Position Orientation Groundspeed Altitude Reporting Facility
EDT Latitude Longitude Course Direction KTS MPH feet Rate Location/Type
09:04AM 32.8333 -96.8333 128° Southeast 162 186 1,500  Level Dallas / Fort Worth TRACON
09:05AM 32.8000 -96.7833 128° Southeast 221 254 3,100 2,340 Climbing Dallas / Fort Worth TRACON
09:06AM 32.7667 -96.7333 128° Southeast 239 275 6,000 2,940 Climbing Dallas / Fort Worth TRACON
09:07AM 32.8333 -96.7000 23° Northeast 276 318 9,000 2,520 Climbing Dallas / Fort Worth TRACON
09:10AM 33.0219 -96.8089 334° Northwest 339 390 14,900 2,460 Climbing Fort Worth Center
09:11AM 33.1203 -96.8778 330° Northwest 360 414 17,500 2,460 Climbing Fort Worth Center
09:12AM 33.2061 -96.9367 330° Northwest 384 442 19,900 2,520 Climbing Fort Worth Center
09:13AM 33.3128 -97.0133 329° Northwest 400 460 22,600 2,220 Climbing Fort Worth Center
09:14AM 33.4153 -97.0178 358° North 396 456 24,400 1,800 Climbing Fort Worth Center
09:15AM 33.5422 -96.9772 15° North 415 478 26,300 1,800 Climbing Fort Worth Center
09:16AM 33.6569 -96.9394 15° North 425 489 28,000 1,500 Climbing Fort Worth Center
09:17AM 33.7778 -96.9011 15° North 436 502 29,400 1,500 Climbing Fort Worth Center
09:18AM 33.8967 -96.8631 15° North 441 507 31,100 1,560 Climbing Fort Worth Center
09:19AM 34.0175 -96.8247 15° North 436 502 32,600 1,380 Climbing Fort Worth Center
09:20AM 34.1383 -96.7836 16° North 436 502 33,900 1,200 Climbing Fort Worth Center
09:21AM 34.2592 -96.7425 16° North 441 507 35,000 540 Climbing Fort Worth Center
09:22AM 34.3781 -96.7064 14° North 441 507 35,000  Level Fort Worth Center
09:23AM 34.4986 -96.6678 15° North 441 507 35,000  Level Fort Worth Center
09:24AM 34.6194 -96.6264 16° North 436 502 35,000  Level Fort Worth Center
09:25AM 34.7361 -96.5872 15° North 436 502 35,000  Level Fort Worth Center
09:26AM 34.8547 -96.5456 16° North 436 502 35,000  Level Fort Worth Center
09:27AM 34.9733 -96.5089 14° North 436 502 35,000  Level Fort Worth Center
09:28AM 35.0939 -96.4669 16° North 436 502 35,000  Level Fort Worth Center
09:30AM 35.3744 -96.3719 15° North 440 506 35,000  Level Kansas City Center
09:31AM 35.4917 -96.3319 16° North 440 506 35,000  Level Kansas City Center
09:32AM 35.6100 -96.2922 15° North 442 509 35,000  Level Kansas City Center
09:33AM 35.7292 -96.2517 15° North 444 511 35,000  Level Kansas City Center
09:34AM 35.8586 -96.2083 15° North 442 509 35,000  Level Kansas City Center
09:35AM 35.9775 -96.1689 15° North 440 506 35,000  Level Kansas City Center
09:36AM 36.0961 -96.1289 15° North 439 505 35,000  Level Kansas City Center
09:37AM 36.2144 -96.0886 15° North 438 504 35,000  Level Kansas City Center
09:38AM 36.3553 -96.0394 16° North 436 502 35,000  Level Kansas City Center
09:39AM 36.4731 -95.9994 15° North 434 499 35,000  Level Kansas City Center
09:40AM 36.5883 -95.9586 16° North 429 494 35,000  Level Kansas City Center
09:41AM 36.7036 -95.9186 16° North 426 490 35,000  Level Kansas City Center
09:42AM 36.8178 -95.8800 15° North 423 487 35,000  Level Kansas City Center
09:43AM 36.9322 -95.8394 16° North 423 487 35,000  Level Kansas City Center
09:44AM 37.0467 -95.7997 15° North 424 488 35,000  Level Kansas City Center
09:46AM 37.1617 -95.7592 16° North 425 489 35,000 -300 Level Kansas City Center
09:47AM 37.3025 -95.7167 13° North 430 495 34,500 -780 Descending Kansas City Center
09:48AM 37.4197 -95.6969 North 427 491 33,500 -960 Descending Kansas City Center
09:49AM 37.5378 -95.6714 10° North 429 494 32,600 -960 Descending Kansas City Center
09:50AM 37.6572 -95.6489 North 432 497 31,600 -960 Descending Kansas City Center
09:51AM 37.7797 -95.6258 North 440 506 30,700 -780 Descending Kansas City Center
09:52AM 37.9025 -95.6011 North 443 510 30,000 -360 Descending Kansas City Center
09:53AM 38.0339 -95.5767 North 450 518 30,000  Level Kansas City Center
09:54AM 38.1692 -95.5492 North 447 514 30,000 -960 Level Kansas City Center
09:55AM 38.2861 -95.5258 North 443 510 28,100 -2,280 Descending Kansas City Center
09:56AM 38.4214 -95.5000 North 440 506 25,300 -2,460 Descending Kansas City Center
09:57AM 38.5331 -95.4761 10° North 426 490 23,100 -2,340 Descending Kansas City Center
09:58AM 38.6592 -95.4503 North 412 474 20,500 -2,280 Descending Kansas City Center
09:59AM 38.7639 -95.4286 North 399 459 18,400 -2,280 Descending Kansas City Center
10:00AM 38.8600 -95.3444 34° Northeast 388 447 15,800 -2,280 Descending Kansas City Center
10:01AM 38.9286 -95.2464 48° Northeast 388 447 13,700 -1,860 Descending Kansas City Center
10:02AM 39.0086 -95.1342 47° Northeast 385 443 12,000 -1,260 Descending Kansas City Center
10:03AM 39.0811 -95.0592 39° Northeast 356 410 11,200 -960 Descending Kansas City Center
10:04AM 39.1714 -94.9936 29° Northeast 337 388 10,000 -1,020 Descending Kansas City Center
10:05AM 39.2397 -94.9408 31° Northeast 305 351 9,100 -1,260 Descending Kansas City Center
10:06AM 39.3178 -94.8772 32° Northeast 300 345 7,500 -1,680 Descending Kansas City Center
10:07AM 39.3861 -94.8247 31° Northeast 300 345 5,700 -1,620 Descending Kansas City Center
10:08AM 39.4672 -94.7661 29° Northeast 301 346 4,200 -960 Descending Kansas City Center
10:09AM 39.4736 -94.7053 82° East 214 246 3,800 -660 Descending Kansas City Center
10:10AM 39.4300 -94.6897 165° South 148 170 2,900 -780 Descending Kansas City Center
10:11AM 39.3956 -94.6986 191° South 132 152 2,300 -600 Descending Kansas City Center
10:12AM 39.3619 -94.7092 194° South 130 150 1,700 -720 Descending Kansas City Center
10:13AM 39.3194 -94.7217 193° South 142 163 900 -780 Descending Kansas City Center